Time;durP1;ratioP1;P1;durP2;ratioP2;P2;SDS_P1;SDS_P2;PMS_P1;PMS_P2;Temp;Humidity;BMP_temperature;BMP_pressure;BME280_temperature;BME280_humidity;BME280_pressure;Samples;Min_cycle;Max_cycle;Signal;HPM_P1;HPM_P2
2023/01/03 00:01:44;;;;;;;1.30;1.20;;;9.60;99.90;;;;;;6091449;23;20258;-65
2023/01/03 00:04:11;;;;;;;1.65;1.20;;;9.60;99.90;;;;;;6091227;23;20185;-65
2023/01/03 00:06:42;;;;;;;1.50;1.40;;;9.60;99.90;;;;;;6091522;23;20619;-65
2023/01/03 00:09:11;;;;;;;1.60;1.50;;;9.50;99.90;;;;;;6089925;23;20235;-65
2023/01/03 00:14:29;;;;;;;1.45;1.35;;;9.50;99.90;;;;;;6065706;23;20188;-65
2023/01/03 00:16:57;;;;;;;1.35;1.23;;;9.50;99.90;;;;;;6090985;23;20286;-64
2023/01/03 00:19:27;;;;;;;2.40;1.77;;;9.50;99.90;;;;;;6091052;23;20263;-65
2023/01/03 00:21:54;;;;;;;1.70;1.60;;;9.40;99.90;;;;;;6090723;23;20582;-65
2023/01/03 00:24:22;;;;;;;1.55;1.38;;;9.40;99.90;;;;;;6090748;23;20285;-65
2023/01/03 00:26:50;;;;;;;1.50;1.40;;;9.40;99.90;;;;;;6090625;23;20216;-65
2023/01/03 00:29:17;;;;;;;2.30;1.40;;;9.40;99.90;;;;;;6091278;23;20188;-65
2023/01/03 00:31:44;;;;;;;1.48;1.38;;;9.30;99.90;;;;;;6090299;23;20608;-65
2023/01/03 00:34:12;;;;;;;3.15;1.90;;;9.30;99.90;;;;;;6091026;23;20211;-65
2023/01/03 00:36:39;;;;;;;1.67;1.50;;;9.20;99.90;;;;;;6091380;23;20212;-65
2023/01/03 00:41:41;;;;;;;1.77;1.67;;;9.10;99.90;;;;;;6090664;23;20190;-65
2023/01/03 00:44:10;;;;;;;1.45;1.35;;;9.10;99.90;;;;;;6091214;23;20274;-65
2023/01/03 00:46:37;;;;;;;1.45;1.35;;;9.00;99.90;;;;;;6091212;23;20289;-65
2023/01/03 00:49:05;;;;;;;1.75;1.50;;;9.00;99.90;;;;;;6090594;23;20667;-65
2023/01/03 00:51:34;;;;;;;1.65;1.55;;;9.00;99.90;;;;;;6090900;23;20718;-65
2023/01/03 00:54:02;;;;;;;1.50;1.40;;;9.00;99.90;;;;;;6089839;23;20298;-65
2023/01/03 00:56:32;;;;;;;1.83;1.73;;;9.00;99.90;;;;;;6091054;23;20204;-65
2023/01/03 00:58:59;;;;;;;1.00;1.00;;;9.00;99.90;;;;;;6090550;23;20225;-65
2023/01/03 01:01:29;;;;;;;2.38;1.33;;;9.00;99.90;;;;;;6090874;23;20271;-65
2023/01/03 01:03:58;;;;;;;1.35;1.20;;;9.00;99.90;;;;;;6090807;23;20188;-65
2023/01/03 01:06:28;;;;;;;1.10;1.00;;;9.00;99.90;;;;;;6090957;23;20211;-65
2023/01/03 01:08:58;;;;;;;1.50;1.10;;;9.00;99.90;;;;;;6089812;23;20193;-65
2023/01/03 01:11:26;;;;;;;1.45;1.35;;;9.00;99.90;;;;;;6090777;23;20194;-65
2023/01/03 01:13:54;;;;;;;2.05;1.38;;;9.10;99.90;;;;;;6073100;23;20216;-65
2023/01/03 01:16:24;;;;;;;1.25;1.15;;;9.00;99.90;;;;;;6061553;23;20634;-65
2023/01/03 01:18:53;;;;;;;2.45;1.35;;;9.00;99.90;;;;;;6069960;23;20640;-65
2023/01/03 01:21:22;;;;;;;1.70;1.20;;;9.00;99.90;;;;;;6090849;23;20187;-65
2023/01/03 01:23:50;;;;;;;1.30;1.15;;;9.10;99.90;;;;;;6089621;23;20687;-65
2023/01/03 01:26:19;;;;;;;1.30;1.20;;;9.00;99.90;;;;;;6090970;23;20287;-65
2023/01/03 01:28:46;;;;;;;1.45;1.20;;;9.00;99.90;;;;;;6090837;23;20263;-65
2023/01/03 01:31:15;;;;;;;1.00;0.90;;;9.10;99.90;;;;;;6090686;23;20184;-65
2023/01/03 01:33:42;;;;;;;1.13;1.02;;;9.00;99.90;;;;;;6090801;23;20294;-65
2023/01/03 01:36:15;;;;;;;1.38;1.10;;;9.10;99.90;;;;;;6090108;23;20262;-65
2023/01/03 01:38:43;;;;;;;1.45;1.35;;;9.10;99.90;;;;;;6068603;23;20191;-66
2023/01/03 01:41:13;;;;;;;1.30;1.17;;;9.00;99.90;;;;;;6090582;23;20330;-65
2023/01/03 01:46:41;;;;;;;1.50;1.40;;;9.10;99.90;;;;;;6090376;23;20208;-64
2023/01/03 01:49:25;;;;;;;1.20;1.10;;;9.00;99.90;;;;;;6090572;23;20266;-65
2023/01/03 01:51:53;;;;;;;1.30;1.20;;;9.00;99.90;;;;;;6090162;23;20275;-64
2023/01/03 01:54:20;;;;;;;1.23;1.08;;;9.00;99.90;;;;;;6090568;23;20299;-64
2023/01/03 01:56:51;;;;;;;1.25;1.13;;;9.00;99.90;;;;;;6090132;23;20239;-64
2023/01/03 01:59:18;;;;;;;0.95;0.85;;;9.00;99.90;;;;;;6089828;23;20199;-64
2023/01/03 02:01:47;;;;;;;1.70;0.90;;;9.00;99.90;;;;;;6090705;23;20223;-64
2023/01/03 02:04:17;;;;;;;1.25;1.13;;;9.00;99.90;;;;;;6090374;23;20191;-65
2023/01/03 02:06:45;;;;;;;2.50;1.35;;;9.00;99.90;;;;;;6089259;23;20299;-65
2023/01/03 02:09:13;;;;;;;1.20;1.10;;;9.00;99.90;;;;;;6090380;23;20184;-65
2023/01/03 02:13:04;;;;;;;1.17;1.00;;;9.00;99.90;;;;;;6091081;23;20727;-66
2023/01/03 02:14:50;;;;;;;1.25;1.08;;;8.80;99.90;;;;;;6090993;23;20239;-65
2023/01/03 02:17:26;;;;;;;0.90;0.90;;;9.00;99.90;;;;;;6091646;23;20210;-65
2023/01/03 02:20:10;;;;;;;1.27;1.17;;;9.10;99.90;;;;;;6090191;23;20214;-64
2023/01/03 02:23:01;;;;;;;1.25;1.15;;;9.10;99.90;;;;;;6062691;23;20267;-65
2023/01/03 02:25:53;;;;;;;1.40;1.15;;;9.00;99.90;;;;;;6063102;23;20623;-65
2023/01/03 02:28:59;;;;;;;1.30;1.08;;;9.10;99.90;;;;;;6091389;23;20189;-64
2023/01/03 02:31:31;;;;;;;2.10;1.50;;;9.10;99.90;;;;;;6062850;23;20214;-65
2023/01/03 02:34:03;;;;;;;1.10;1.00;;;9.00;99.90;;;;;;6077809;23;20306;-65
2023/01/03 02:36:40;;;;;;;1.20;1.10;;;9.00;99.90;;;;;;6091028;23;20785;-65
2023/01/03 02:39:20;;;;;;;1.20;1.10;;;9.00;99.90;;;;;;6091385;23;20357;-65
2023/01/03 02:42:56;;;;;;;1.52;1.42;;;9.00;99.90;;;;;;6091062;23;20709;-65
2023/01/03 02:44:49;;;;;;;1.45;1.35;;;8.90;99.90;;;;;;6091244;23;20195;-65
2023/01/03 02:47:21;;;;;;;2.25;1.33;;;8.90;99.90;;;;;;6090757;23;20214;-65
2023/01/03 02:49:51;;;;;;;1.33;1.23;;;8.90;99.90;;;;;;6090838;23;20262;-65
2023/01/03 02:52:24;;;;;;;3.72;1.25;;;8.80;99.90;;;;;;6089656;23;20196;-65
2023/01/03 02:54:55;;;;;;;2.45;1.40;;;8.70;99.90;;;;;;6091324;23;20207;-65
2023/01/03 02:57:27;;;;;;;1.10;1.00;;;8.70;99.90;;;;;;6091227;23;20301;-65
2023/01/03 02:59:58;;;;;;;1.30;1.20;;;8.70;99.90;;;;;;6084165;23;20267;-65
2023/01/03 03:02:31;;;;;;;2.55;1.58;;;8.60;99.90;;;;;;6080200;23;20611;-65
2023/01/03 03:05:00;;;;;;;1.70;1.25;;;8.60;99.90;;;;;;6091222;23;20223;-65
2023/01/03 03:07:32;;;;;;;2.53;1.40;;;8.60;99.90;;;;;;6091599;23;20191;-65
2023/01/03 03:15:37;;;;;;;1.60;1.33;;;8.60;99.90;;;;;;6090334;23;20285;-65
2023/01/03 03:18:10;;;;;;;2.20;1.63;;;8.60;99.90;;;;;;6090663;23;20198;-65
2023/01/03 03:26:18;;;;;;;1.58;1.48;;;8.50;99.90;;;;;;6091128;23;20671;-65
2023/01/03 03:28:49;;;;;;;1.40;1.30;;;8.50;99.90;;;;;;6091021;23;20206;-65
2023/01/03 03:31:21;;;;;;;2.58;1.58;;;8.50;99.90;;;;;;6089122;23;20630;-65
2023/01/03 03:33:54;;;;;;;2.17;1.70;;;8.40;99.90;;;;;;6090149;23;20290;-65
2023/01/03 03:36:27;;;;;;;1.60;1.50;;;8.40;99.90;;;;;;6091627;23;20628;-65
2023/01/03 03:38:55;;;;;;;2.22;1.65;;;8.40;99.90;;;;;;6090852;23;20676;-65
2023/01/03 03:47:21;;;;;;;1.70;1.50;;;8.30;99.90;;;;;;6091399;23;20206;-65
2023/01/03 03:49:52;;;;;;;2.60;2.00;;;8.30;99.90;;;;;;6091155;23;20185;-65
2023/01/03 03:52:24;;;;;;;1.67;1.58;;;8.30;99.90;;;;;;6090655;23;20184;-65
2023/01/03 03:54:58;;;;;;;3.10;1.98;;;8.20;99.90;;;;;;6091406;23;20296;-65
2023/01/03 03:57:31;;;;;;;2.05;1.70;;;8.20;99.90;;;;;;6091010;23;20196;-65
2023/01/03 04:00:04;;;;;;;2.53;1.90;;;8.20;99.90;;;;;;6090210;23;20317;-65
2023/01/03 04:02:32;;;;;;;2.22;1.73;;;8.20;99.90;;;;;;6091324;23;20560;-65
2023/01/03 04:05:06;;;;;;;2.20;2.00;;;8.20;99.90;;;;;;6090980;23;20707;-65
2023/01/03 04:07:33;;;;;;;2.30;2.10;;;8.20;99.90;;;;;;6090745;23;20643;-65
2023/01/03 04:10:01;;;;;;;2.00;1.90;;;8.10;99.90;;;;;;6091403;23;20193;-65
2023/01/03 04:12:28;;;;;;;5.40;1.92;;;8.10;99.90;;;;;;6090567;23;20273;-65
2023/01/03 04:14:55;;;;;;;2.20;2.00;;;8.10;99.90;;;;;;6090642;23;20221;-65
2023/01/03 04:17:22;;;;;;;2.47;2.28;;;8.10;99.90;;;;;;6086262;23;20202;-65
2023/01/03 04:19:49;;;;;;;2.50;2.30;;;8.10;99.90;;;;;;6090428;23;20198;-65
2023/01/03 04:22:17;;;;;;;3.65;2.20;;;8.00;99.90;;;;;;6091560;23;20579;-65
2023/01/03 04:24:44;;;;;;;2.20;2.10;;;8.00;99.90;;;;;;6091075;23;20510;-65
2023/01/03 04:27:11;;;;;;;2.88;2.00;;;8.00;99.90;;;;;;6090453;23;20289;-65
2023/01/03 04:29:38;;;;;;;2.20;2.10;;;8.00;99.90;;;;;;6091035;23;20245;-65
2023/01/03 04:32:06;;;;;;;2.47;2.20;;;7.90;99.90;;;;;;6089718;23;20208;-65
2023/01/03 04:34:33;;;;;;;2.17;1.95;;;7.90;99.90;;;;;;6090577;23;20681;-65
2023/01/03 04:36:59;;;;;;;2.20;1.80;;;7.80;99.90;;;;;;6090545;23;20248;-65
2023/01/03 04:39:28;;;;;;;2.08;1.80;;;7.90;99.90;;;;;;6090306;23;20705;-65
2023/01/03 04:41:55;;;;;;;2.20;2.10;;;7.80;99.90;;;;;;6091393;23;20190;-65
2023/01/03 04:44:21;;;;;;;2.33;2.13;;;7.80;99.90;;;;;;6090929;23;20197;-65
2023/01/03 04:46:48;;;;;;;2.78;2.25;;;7.80;99.90;;;;;;6088536;23;20568;-65
2023/01/03 04:49:15;;;;;;;2.25;2.15;;;7.80;99.90;;;;;;6089334;23;20191;-65
2023/01/03 04:51:42;;;;;;;2.42;2.17;;;7.70;99.90;;;;;;6091405;23;20480;-65
2023/01/03 04:54:09;;;;;;;2.15;2.05;;;7.70;99.90;;;;;;6091264;23;20319;-65
2023/01/03 04:56:38;;;;;;;2.28;2.17;;;7.70;99.90;;;;;;6090772;23;20229;-65
2023/01/03 04:59:05;;;;;;;2.35;2.15;;;7.60;99.90;;;;;;6090589;23;20190;-65
2023/01/03 05:01:33;;;;;;;3.45;2.15;;;7.60;99.90;;;;;;6089040;23;20222;-65
2023/01/03 05:04:01;;;;;;;4.50;1.80;;;7.60;99.90;;;;;;6091316;23;20187;-65
2023/01/03 05:06:29;;;;;;;2.50;2.30;;;7.60;99.90;;;;;;6090851;23;20208;-65
2023/01/03 05:08:56;;;;;;;2.40;2.20;;;7.70;99.90;;;;;;6090844;23;20274;-65
2023/01/03 05:11:23;;;;;;;2.10;2.00;;;7.60;99.90;;;;;;6090298;23;20244;-65
2023/01/03 05:13:51;;;;;;;2.85;2.65;;;7.60;99.90;;;;;;6090187;23;20216;-65
2023/01/03 05:16:19;;;;;;;3.67;2.40;;;7.60;99.90;;;;;;6090174;23;20700;-65
2023/01/03 05:18:48;;;;;;;2.92;2.10;;;7.60;99.90;;;;;;6091337;23;20186;-65
2023/01/03 05:26:46;;;;;;;2.10;2.00;;;7.60;99.90;;;;;;6090663;23;20217;-65
2023/01/03 05:29:18;;;;;;;2.10;1.90;;;7.60;99.90;;;;;;6089968;23;20197;-66
2023/01/03 05:31:45;;;;;;;2.30;2.10;;;7.60;99.90;;;;;;6090438;23;20610;-65
2023/01/03 05:34:12;;;;;;;2.20;2.00;;;7.60;99.90;;;;;;6091185;23;20291;-65
2023/01/03 05:36:40;;;;;;;2.97;2.22;;;7.50;99.90;;;;;;6090229;23;20330;-65
2023/01/03 05:39:07;;;;;;;3.40;2.50;;;7.50;99.90;;;;;;6090770;23;20280;-65
2023/01/03 05:44:20;;;;;;;2.35;2.15;;;7.30;99.90;;;;;;6089494;23;20230;-65
2023/01/03 05:46:47;;;;;;;2.75;2.55;;;7.30;99.90;;;;;;6089643;23;20208;-66
2023/01/03 05:49:14;;;;;;;2.40;2.20;;;7.20;99.90;;;;;;6090436;23;20235;-64
2023/01/03 05:51:42;;;;;;;3.00;2.80;;;7.20;99.90;;;;;;6090733;23;20249;-64
2023/01/03 05:54:12;;;;;;;3.47;2.40;;;7.20;99.90;;;;;;6090701;23;20619;-64
2023/01/03 05:56:39;;;;;;;3.22;2.92;;;7.10;99.90;;;;;;6089616;23;20621;-64
2023/01/03 05:59:06;;;;;;;3.15;2.85;;;7.10;99.90;;;;;;6090256;23;20235;-64
2023/01/03 06:01:35;;;;;;;2.40;2.20;;;7.10;99.90;;;;;;6089838;23;20195;-64
2023/01/03 06:04:02;;;;;;;2.67;2.47;;;7.10;99.90;;;;;;6090738;23;20237;-64
2023/01/03 06:06:29;;;;;;;2.97;2.30;;;7.10;99.90;;;;;;6090091;23;20288;-64
2023/01/03 06:08:56;;;;;;;2.97;2.40;;;7.10;99.90;;;;;;6090066;23;20191;-64
2023/01/03 06:11:23;;;;;;;3.50;2.50;;;7.20;99.90;;;;;;6089697;23;20194;-64
2023/01/03 06:13:50;;;;;;;2.50;2.40;;;7.20;99.90;;;;;;6089234;23;20265;-65
2023/01/03 06:19:07;;;;;;;2.30;2.10;;;7.30;99.90;;;;;;6090038;23;20279;-64
2023/01/03 06:21:34;;;;;;;2.38;2.20;;;7.30;99.90;;;;;;6090424;23;20193;-65
2023/01/03 06:24:01;;;;;;;3.05;2.80;;;7.40;99.90;;;;;;6089910;23;20229;-65
2023/01/03 06:26:29;;;;;;;2.75;2.55;;;7.40;99.90;;;;;;6088687;23;20249;-65
2023/01/03 06:28:56;;;;;;;3.05;2.25;;;7.40;99.90;;;;;;6090390;23;20272;-65
2023/01/03 06:31:22;;;;;;;2.63;2.42;;;7.40;99.90;;;;;;6090099;23;20199;-65
2023/01/03 06:33:50;;;;;;;4.25;3.08;;;7.40;99.90;;;;;;6089684;23;20582;-65
2023/01/03 06:36:20;;;;;;;3.25;2.58;;;7.40;99.90;;;;;;6089965;23;20216;-65
2023/01/03 06:38:48;;;;;;;2.90;2.70;;;7.40;99.90;;;;;;6088886;23;20187;-65
2023/01/03 06:41:16;;;;;;;3.42;3.13;;;7.40;99.90;;;;;;6087573;23;20219;-65
2023/01/03 06:43:44;;;;;;;2.50;2.30;;;7.40;99.90;;;;;;6089843;23;20590;-65
2023/01/03 06:54:31;;;;;;;3.13;2.75;;;7.40;99.90;;;;;;6088982;23;20224;-65
2023/01/03 06:56:58;;;;;;;4.88;3.42;;;7.30;99.90;;;;;;6090068;23;20237;-65
2023/01/03 06:59:26;;;;;;;3.33;3.13;;;7.20;99.90;;;;;;6091323;23;20193;-64
2023/01/03 07:01:54;;;;;;;3.90;3.47;;;7.10;99.90;;;;;;6079430;23;20233;-65
2023/01/03 07:04:22;;;;;;;3.90;3.22;;;7.00;99.90;;;;;;6084955;23;20196;-65
2023/01/03 07:06:51;;;;;;;3.30;3.00;;;6.90;99.90;;;;;;6090371;23;20210;-65
2023/01/03 07:09:18;;;;;;;4.30;3.90;;;6.80;99.90;;;;;;6091119;23;20217;-65
2023/01/03 07:11:45;;;;;;;3.60;3.30;;;6.80;99.90;;;;;;6091164;23;20195;-66
2023/01/03 07:14:12;;;;;;;5.57;3.95;;;6.80;99.90;;;;;;6091217;23;20291;-66
2023/01/03 07:16:40;;;;;;;4.80;4.40;;;6.80;99.90;;;;;;6090711;23;20296;-66
2023/01/03 07:19:10;;;;;;;4.00;3.70;;;6.80;99.90;;;;;;6088647;23;20199;-66
2023/01/03 07:21:37;;;;;;;4.32;3.80;;;6.70;99.90;;;;;;6090595;23;20714;-66
2023/01/03 07:24:07;;;;;;;3.67;3.40;;;6.70;99.90;;;;;;6091450;23;20199;-66
2023/01/03 07:26:35;;;;;;;3.90;3.55;;;6.80;99.90;;;;;;6090644;23;20211;-66
2023/01/03 07:29:04;;;;;;;3.53;3.17;;;6.80;99.90;;;;;;6090969;23;20220;-66
2023/01/03 07:31:32;;;;;;;4.10;3.35;;;6.70;99.90;;;;;;6090049;23;20715;-66
2023/01/03 07:33:59;;;;;;;3.92;3.53;;;6.90;99.90;;;;;;6090519;23;20543;-66
2023/01/03 07:36:26;;;;;;;4.72;3.58;;;6.90;99.90;;;;;;6090689;23;20225;-66
2023/01/03 07:38:54;;;;;;;3.80;3.25;;;6.90;99.90;;;;;;6091250;23;20222;-66
2023/01/03 07:43:35;;;;;;;4.97;3.45;;;6.90;99.90;;;;;;6090888;23;20243;-66
2023/01/03 07:44:09;;;;;;;3.42;3.22;;;6.90;99.90;;;;;;6090945;23;20735;-66
2023/01/03 07:46:36;;;;;;;3.67;3.30;;;6.90;99.90;;;;;;6090992;23;20208;-66
2023/01/03 07:49:03;;;;;;;3.25;3.05;;;6.90;99.90;;;;;;6088841;23;20272;-66
2023/01/03 07:51:30;;;;;;;3.65;3.35;;;6.90;99.90;;;;;;6090751;23;20822;-66
2023/01/03 07:53:57;;;;;;;3.83;3.53;;;6.90;99.90;;;;;;6090500;23;20213;-66
2023/01/03 07:56:25;;;;;;;3.60;3.10;;;7.00;99.90;;;;;;6090661;23;20921;-66
2023/01/03 07:58:52;;;;;;;4.53;3.42;;;7.00;99.90;;;;;;6090706;23;20711;-66
2023/01/03 08:01:21;;;;;;;3.45;3.15;;;7.00;99.90;;;;;;6090264;23;20664;-66
2023/01/03 08:03:48;;;;;;;3.75;3.05;;;7.10;99.90;;;;;;6089056;23;20193;-66
2023/01/03 08:06:18;;;;;;;3.38;3.08;;;7.20;99.90;;;;;;6091160;23;20241;-66
2023/01/03 08:13:16;;;;;;;4.25;3.88;;;7.20;99.90;;;;;;6089055;23;20197;-66
2023/01/03 08:14:19;;;;;;;3.97;3.38;;;7.30;99.90;;;;;;6091103;23;20198;-66
2023/01/03 08:16:46;;;;;;;3.83;3.50;;;7.30;99.90;;;;;;6090513;23;20708;-66
2023/01/03 08:19:13;;;;;;;3.53;3.22;;;7.50;99.90;;;;;;6088650;23;20281;-66
2023/01/03 08:21:40;;;;;;;3.47;3.17;;;7.50;99.90;;;;;;6091578;23;20220;-66
2023/01/03 08:24:07;;;;;;;4.30;3.72;;;7.60;99.90;;;;;;6091132;23;20193;-66
2023/01/03 08:26:35;;;;;;;6.72;3.70;;;7.60;99.90;;;;;;6090410;23;20754;-66
2023/01/03 08:29:02;;;;;;;3.75;3.45;;;7.60;99.90;;;;;;6090828;23;20192;-66
2023/01/03 08:31:32;;;;;;;3.65;3.35;;;7.60;99.90;;;;;;6089758;23;20654;-66
2023/01/03 08:34:03;;;;;;;3.92;3.63;;;7.60;99.90;;;;;;6091138;23;20220;-66
2023/01/03 08:36:35;;;;;;;3.67;3.47;;;7.60;99.90;;;;;;6090538;23;20731;-66
2023/01/03 08:39:07;;;;;;;5.00;4.10;;;7.60;99.90;;;;;;6090993;23;20181;-66
2023/01/03 08:41:39;;;;;;;4.35;3.95;;;7.60;99.90;;;;;;6090689;23;20271;-66
2023/01/03 08:44:09;;;;;;;3.97;3.67;;;7.60;99.90;;;;;;6090310;23;20182;-66
2023/01/03 08:46:40;;;;;;;5.03;4.53;;;7.60;99.90;;;;;;6089346;23;20217;-66
2023/01/03 08:49:07;;;;;;;4.60;4.20;;;7.60;99.90;;;;;;6089818;23;20306;-66
2023/01/03 08:51:34;;;;;;;4.55;4.15;;;7.70;99.90;;;;;;6089793;23;20600;-66
2023/01/03 08:54:01;;;;;;;3.90;3.60;;;7.70;99.90;;;;;;6091050;23;20300;-66
2023/01/03 08:56:28;;;;;;;3.80;3.50;;;7.80;99.90;;;;;;6090472;23;20247;-66
2023/01/03 08:58:56;;;;;;;4.00;3.70;;;7.80;99.90;;;;;;6090760;23;20259;-66
2023/01/03 09:01:23;;;;;;;4.60;4.20;;;8.00;99.90;;;;;;6090435;23;20187;-66
2023/01/03 09:03:51;;;;;;;5.82;4.30;;;8.10;99.90;;;;;;6088230;23;20276;-66
2023/01/03 09:06:17;;;;;;;3.90;3.58;;;8.10;99.90;;;;;;6091094;23;20208;-66
2023/01/03 09:08:45;;;;;;;4.13;3.80;;;8.10;99.90;;;;;;6090422;23;20581;-66
2023/01/03 09:11:12;;;;;;;3.90;3.60;;;8.10;99.90;;;;;;6090700;23;20227;-66
2023/01/03 09:13:39;;;;;;;4.25;3.85;;;8.10;99.90;;;;;;6090238;23;20192;-66
2023/01/03 09:16:10;;;;;;;6.38;3.85;;;8.10;99.90;;;;;;6086206;23;20226;-66
2023/01/03 09:18:37;;;;;;;4.80;3.78;;;8.00;99.90;;;;;;6084639;23;20219;-66
2023/01/03 09:21:05;;;;;;;4.50;4.07;;;8.00;99.90;;;;;;6090860;23;20198;-66
2023/01/03 09:23:33;;;;;;;4.30;3.85;;;8.00;99.90;;;;;;6090720;23;20729;-66
2023/01/03 09:26:00;;;;;;;5.05;3.67;;;7.80;99.90;;;;;;6090232;23;20298;-66
2023/01/03 09:28:28;;;;;;;4.40;4.00;;;7.90;99.90;;;;;;6090675;23;20245;-66
2023/01/03 09:30:55;;;;;;;5.30;3.92;;;8.00;99.90;;;;;;6088370;23;20223;-66
2023/01/03 09:33:24;;;;;;;4.85;3.75;;;8.00;99.90;;;;;;6089016;23;20270;-66
2023/01/03 09:35:52;;;;;;;4.00;3.58;;;8.10;99.90;;;;;;6090024;23;20298;-66
2023/01/03 09:38:20;;;;;;;6.25;4.22;;;8.20;99.90;;;;;;6090108;23;20190;-66
2023/01/03 09:40:55;;;;;;;3.97;3.58;;;8.30;99.90;;;;;;6090224;23;20272;-66
2023/01/03 09:43:25;;;;;;;4.90;4.40;;;8.40;99.90;;;;;;6090777;23;20187;-66
2023/01/03 09:45:56;;;;;;;6.10;3.90;;;8.40;99.90;;;;;;6089933;23;20203;-66
2023/01/03 09:48:32;;;;;;;5.10;4.60;;;8.50;99.90;;;;;;6087689;23;20215;-66
2023/01/03 09:50:59;;;;;;;4.43;4.03;;;8.50;99.90;;;;;;6089506;23;20184;-66
2023/01/03 10:05:16;;;;;;;4.75;4.25;;;9.20;99.90;;;;;;6089295;23;20214;-66
2023/01/03 10:08:09;;;;;;;6.30;4.22;;;9.20;99.90;;;;;;6090127;23;20188;-66
2023/01/03 10:10:46;;;;;;;4.78;4.38;;;9.00;99.90;;;;;;6089452;23;20195;-66
2023/01/03 10:13:20;;;;;;;11.23;4.40;;;8.70;99.90;;;;;;6090252;23;20230;-66
2023/01/03 10:16:00;;;;;;;5.05;4.63;;;8.40;99.90;;;;;;6089087;23;20223;-66
2023/01/03 10:18:44;;;;;;;4.72;4.25;;;8.10;99.90;;;;;;6089933;23;20288;-66
2023/01/03 10:21:21;;;;;;;5.15;4.68;;;8.00;99.90;;;;;;6087832;23;20200;-66
2023/01/03 10:23:49;;;;;;;5.70;4.30;;;7.90;99.90;;;;;;6089408;23;20272;-66
2023/01/03 10:26:17;;;;;;;4.70;4.30;;;8.00;99.90;;;;;;6069654;23;20214;-66
2023/01/03 10:28:45;;;;;;;4.50;4.10;;;8.00;99.90;;;;;;6089773;23;20273;-66
2023/01/03 10:31:27;;;;;;;4.57;4.22;;;8.00;99.90;;;;;;6089957;23;20190;-66
2023/01/03 10:33:54;;;;;;;4.30;3.90;;;8.40;99.90;;;;;;6091386;23;20619;-66
2023/01/03 10:36:23;;;;;;;4.10;3.80;;;8.40;99.90;;;;;;6089374;23;20265;-66
2023/01/03 10:39:03;;;;;;;5.20;3.67;;;8.70;99.90;;;;;;6091082;23;20245;-66
2023/01/03 10:41:36;;;;;;;3.47;3.17;;;9.00;99.90;;;;;;6091139;23;20180;-66
2023/01/03 10:44:04;;;;;;;3.80;3.50;;;9.40;99.90;;;;;;6091335;23;20214;-66
2023/01/03 10:46:31;;;;;;;3.33;3.03;;;9.80;99.90;;;;;;6090917;23;20208;-66
2023/01/03 10:49:16;;;;;;;3.88;3.58;;;10.10;99.90;;;;;;6090082;23;20679;-67
2023/01/03 10:51:54;;;;;;;3.83;3.25;;;10.80;99.90;;;;;;6087199;23;20200;-66
2023/01/03 10:54:28;;;;;;;4.57;4.00;;;11.40;99.90;;;;;;6074304;23;20189;-66
2023/01/03 10:56:55;;;;;;;4.23;3.83;;;11.90;99.90;;;;;;6090803;23;20869;-66
2023/01/03 10:59:24;;;;;;;4.40;3.70;;;12.40;99.90;;;;;;6089795;23;20452;-66
2023/01/03 11:01:59;;;;;;;3.63;3.33;;;13.10;99.90;;;;;;6091469;23;20489;-67
2023/01/03 11:04:28;;;;;;;3.80;3.00;;;13.60;99.90;;;;;;6090625;23;20467;-66
2023/01/03 11:07:01;;;;;;;3.90;3.47;;;13.60;99.90;;;;;;6090371;23;20748;-67
2023/01/03 11:09:34;;;;;;;4.27;3.40;;;14.00;99.90;;;;;;6090884;23;20436;-65
2023/01/03 11:12:05;;;;;;;3.83;3.43;;;14.30;99.90;;;;;;6090794;23;20422;-65
2023/01/03 11:14:32;;;;;;;3.97;3.07;;;14.70;99.90;;;;;;6090297;23;20446;-65
2023/01/03 11:17:01;;;;;;;4.77;3.40;;;15.00;99.90;;;;;;6090964;23;20469;-65
2023/01/03 11:19:30;;;;;;;3.20;3.00;;;15.20;99.90;;;;;;6090276;23;20898;-66
2023/01/03 11:22:05;;;;;;;3.60;2.90;;;15.30;99.90;;;;;;6090282;23;20445;-67
2023/01/03 11:24:52;;;;;;;3.03;2.83;;;15.50;99.90;;;;;;6091045;23;20513;-66
2023/01/03 11:27:29;;;;;;;3.30;3.03;;;15.40;99.90;;;;;;6091248;23;20468;-67
2023/01/03 11:30:14;;;;;;;3.50;3.20;;;15.40;99.90;;;;;;6090615;23;20505;-66
2023/01/03 11:32:54;;;;;;;2.30;2.10;;;15.40;99.90;;;;;;6091238;23;20462;-67
2023/01/03 11:35:44;;;;;;;2.00;1.90;;;15.70;99.90;;;;;;6090058;23;20545;-67
2023/01/03 11:38:25;;;;;;;3.83;2.30;;;16.20;99.90;;;;;;6091178;23;20915;-66
2023/01/03 11:41:03;;;;;;;4.90;2.10;;;16.50;99.90;;;;;;6091192;23;20573;-67
2023/01/03 11:43:53;;;;;;;2.30;2.10;;;16.70;99.90;;;;;;6090941;23;20432;-67
2023/01/03 11:46:38;;;;;;;2.70;2.00;;;17.00;99.90;;;;;;6091454;23;20441;-67
2023/01/03 11:49:20;;;;;;;3.67;2.60;;;17.30;99.90;;;;;;6065234;23;20512;-67
2023/01/03 11:51:59;;;;;;;1.90;1.80;;;17.90;99.90;;;;;;6091240;23;20444;-66
2023/01/03 11:54:50;;;;;;;2.03;1.93;;;18.30;99.90;;;;;;6090654;23;21020;-65
2023/01/03 11:57:26;;;;;;;2.53;1.90;;;18.60;99.90;;;;;;6091002;23;20619;-66
2023/01/03 12:00:08;;;;;;;1.90;1.80;;;18.90;99.90;;;;;;6090840;23;20460;-66
2023/01/03 12:03:01;;;;;;;2.10;2.00;;;18.80;99.90;;;;;;6091074;23;20417;-66
2023/01/03 12:05:45;;;;;;;1.80;1.47;;;18.60;99.90;;;;;;6083596;23;20459;-66
2023/01/03 12:08:34;;;;;;;2.90;1.60;;;18.80;99.90;;;;;;6090851;23;20427;-66
2023/01/03 12:11:12;;;;;;;2.93;1.90;;;18.50;99.90;;;;;;6090500;23;20754;-66
2023/01/03 12:13:45;;;;;;;2.67;1.90;;;18.30;99.90;;;;;;6090481;23;20415;-66
2023/01/03 12:16:15;;;;;;;1.40;1.30;;;17.90;99.90;;;;;;6090469;23;20467;-66
2023/01/03 12:18:48;;;;;;;1.67;1.20;;;17.90;99.90;;;;;;6090284;23;20509;-66
2023/01/03 12:21:23;;;;;;;3.33;1.60;;;17.90;99.90;;;;;;6090438;23;20447;-66
2023/01/03 12:23:56;;;;;;;1.33;1.23;;;17.80;99.90;;;;;;6090313;23;20496;-66
2023/01/03 12:26:26;;;;;;;1.87;1.60;;;17.60;99.90;;;;;;6090691;23;20451;-66
2023/01/03 12:28:59;;;;;;;1.53;1.43;;;17.50;99.90;;;;;;6090927;23;20513;-66
2023/01/03 12:31:31;;;;;;;1.40;1.30;;;17.20;99.90;;;;;;6091019;23;20930;-66
2023/01/03 12:34:09;;;;;;;2.47;2.27;;;17.10;99.90;;;;;;6090114;23;20446;-66
2023/01/03 12:36:42;;;;;;;1.80;1.37;;;17.30;99.90;;;;;;6090534;23;20965;-66
2023/01/03 12:39:28;;;;;;;2.00;1.17;;;17.60;99.90;;;;;;6083818;23;20442;-75
2023/01/03 12:42:03;;;;;;;2.90;1.40;;;17.70;99.90;;;;;;6084723;23;20453;-68
2023/01/03 12:44:35;;;;;;;2.80;1.80;;;17.90;99.90;;;;;;6084816;23;20870;-68
2023/01/03 12:47:04;;;;;;;1.60;1.50;;;17.90;99.90;;;;;;6074650;23;20448;-68
2023/01/03 12:49:38;;;;;;;2.60;1.70;;;17.70;99.90;;;;;;6076109;23;20431;-68
2023/01/03 12:52:08;;;;;;;1.70;1.60;;;17.70;99.90;;;;;;6081720;23;20438;-68
2023/01/03 12:54:41;;;;;;;1.70;1.60;;;17.70;99.90;;;;;;6081072;23;20454;-66
2023/01/03 12:57:41;;;;;;;1.70;1.60;;;17.70;99.90;;;;;;6075710;23;21101;-66
2023/01/03 13:00:26;;;;;;;1.63;1.30;;;17.40;99.90;;;;;;6081812;23;20427;-66
2023/01/03 13:02:58;;;;;;;1.97;1.20;;;17.10;99.90;;;;;;6078432;23;20438;-66
2023/01/03 13:05:34;;;;;;;1.93;1.53;;;16.70;99.90;;;;;;6078339;23;20528;-66
2023/01/03 13:08:08;;;;;;;1.60;1.50;;;16.30;99.90;;;;;;6078355;23;20465;-66
2023/01/03 13:10:40;;;;;;;2.47;1.60;;;16.00;99.90;;;;;;6083847;23;20437;-66
2023/01/03 13:13:16;;;;;;;1.67;1.53;;;15.80;99.90;;;;;;6077855;23;20447;-66
2023/01/03 13:15:45;;;;;;;2.30;1.43;;;15.70;99.90;;;;;;6078183;23;20890;-80
2023/01/03 13:18:31;;;;;;;1.50;1.40;;;15.80;99.90;;;;;;6079992;23;20442;-83
2023/01/03 13:20:59;;;;;;;1.60;1.37;;;16.00;99.90;;;;;;6075791;23;20525;-81
2023/01/03 13:23:33;;;;;;;2.03;1.40;;;15.90;99.90;;;;;;6078891;23;20516;-67
2023/01/03 13:26:30;;;;;;;1.53;1.43;;;15.90;99.90;;;;;;6082957;23;20549;-67
2023/01/03 13:29:31;;;;;;;1.17;1.07;;;15.90;99.90;;;;;;5963079;23;20430;-67
2023/01/03 13:32:15;;;;;;;1.90;0.90;;;16.00;99.90;;;;;;6083565;23;20977;-67
2023/01/03 13:34:43;;;;;;;1.60;1.10;;;16.10;99.90;;;;;;6077082;23;21046;-67
2023/01/03 13:37:18;;;;;;;1.40;1.07;;;15.90;99.90;;;;;;6084979;23;20857;-67
2023/01/03 13:40:17;;;;;;;2.43;1.20;;;15.80;99.90;;;;;;6070534;23;20435;-67
2023/01/03 13:42:45;;;;;;;1.17;0.80;;;15.70;99.90;;;;;;5960890;23;20438;-67
2023/01/03 13:45:54;;;;;;;1.83;1.03;;;15.40;99.90;;;;;;6054192;23;20882;-67
2023/01/03 13:48:38;;;;;;;1.67;1.00;;;15.00;99.90;;;;;;6077004;23;20437;-67
2023/01/03 13:51:38;;;;;;;1.13;0.70;;;14.20;99.90;;;;;;6089749;23;20452;-67
2023/01/03 13:54:25;;;;;;;0.93;0.80;;;13.70;99.90;;;;;;6080891;23;20503;-67
2023/01/03 13:57:04;;;;;;;1.53;0.90;;;13.40;99.90;;;;;;6082750;23;20462;-67
2023/01/03 13:59:35;;;;;;;1.80;0.90;;;13.20;99.90;;;;;;6081516;23;20459;-66
2023/01/03 14:02:43;;;;;;;0.80;0.67;;;13.10;99.90;;;;;;6086219;23;20440;-66
2023/01/03 14:05:39;;;;;;;1.00;0.90;;;13.10;99.90;;;;;;6066720;23;20998;-66
2023/01/03 14:08:25;;;;;;;1.13;0.80;;;13.30;99.90;;;;;;6085788;23;20488;-66
2023/01/03 14:11:30;;;;;;;1.90;0.97;;;13.40;99.90;;;;;;6085807;23;20528;-66
2023/01/03 14:14:03;;;;;;;2.57;1.40;;;13.50;99.90;;;;;;6085182;23;20437;-66
2023/01/03 14:16:43;;;;;;;1.97;1.60;;;13.30;99.90;;;;;;6089382;23;20463;-66
2023/01/03 14:19:18;;;;;;;2.17;1.97;;;13.20;99.90;;;;;;6084716;23;21002;-67
2023/01/03 14:21:50;;;;;;;2.60;2.40;;;13.00;99.90;;;;;;6107526;23;20835;-70